Latest Weather Observations for Mount Hotham Airport

IDV60801

Issued at 10:32 am EDT Wednesday 18 January 2017 (issued every 30 minutes, with the page automatically refreshed every 10 minutes)

About weather observations | Map of weather stations | Latest weather observations for VIC | Other Formats
Station Details ID: 083055 Name: MOUNT HOTHAM AIRPORT Lat: -37.05 Lon: 147.33 Height: 1295.4 m
Data from the previous 72 hours. | See also: Recent months at Mount Hotham Airport
Date/Time
EDT
Temp
°C
App
Temp
°C
Dew
Point
°C
Rel
Hum
%
Delta-T
°C
Wind Press
QNH
hPa
Press
MSL
hPa
Rain since
9am
mm
Dir  Spd
km/h
Gust
km/h
Spd
kts
Gust
kts
18/10:30am 16.8 15.0 10.9 68 3.4 SSE 11 13 6 7 1013.8 - 0.0
18/10:00am 18.0 17.6 9.9 59 4.6 WSW 2 7 1 4 1013.9 - 0.0
18/09:30am 17.6 15.4 9.5 59 4.5 SSW 11 19 6 10 1013.9 - 0.0
18/09:00am 18.6 16.4 8.0 50 5.8 WSW 9 17 5 9 1013.6 1009.5 0.0
18/08:30am 17.2 14.4 7.0 51 5.4 SW 11 17 6 9 1013.4 - 0.0
18/08:00am 14.5 12.0 8.2 66 3.4 S 11 19 6 10 1012.7 - 0.0
18/07:30am 13.8 11.4 8.6 71 2.8 NNW 11 15 6 8 1011.8 - 0.0
18/07:00am 11.2 9.7 9.1 87 1.1 NNW 7 11 4 6 1012.5 - 0.0
18/06:30am 9.6 8.3 7.7 88 1.0 WNW 4 6 2 3 1012.8 - 0.0
18/06:00am 9.3 8.7 7.6 89 0.9 CALM 0 4 0 2 1013.0 1009.0 0.0
18/05:30am 9.9 9.3 7.2 83 1.4 CALM 0 2 0 1 1012.9 - 0.0
18/05:00am 10.6 9.9 7.1 79 1.8 CALM 0 2 0 1 1013.0 - 0.0
18/04:30am 10.9 9.5 7.4 79 1.8 WSW 4 6 2 3 1013.1 - 0.0
18/04:00am 11.7 11.0 7.0 73 2.4 CALM 0 4 0 2 1012.8 - 0.0
18/03:30am 11.4 9.7 6.1 70 2.7 WSW 4 7 2 4 1013.2 - 0.0
18/03:00am 12.1 10.5 6.4 68 2.9 SW 4 7 2 4 1013.8 1009.8 0.0
18/02:30am 12.5 10.3 6.1 65 3.3 SSW 7 13 4 7 1014.2 - 0.0
18/02:00am 12.9 11.1 5.6 61 3.7 SW 4 7 2 4 1014.3 - 0.0
18/01:30am 15.2 11.1 6.0 54 4.7 SSW 17 26 9 14 1014.6 - 0.0
18/01:00am 15.8 10.7 6.0 52 5.1 SSW 22 33 12 18 1014.3 - 0.0
18/12:30am 16.6 12.1 -0.1 32 7.7 WNW 13 17 7 9 1013.5 - 0.0
18/12:00am 17.6 13.5 -0.2 30 8.3 NW 11 15 6 8 1013.7 1009.7 0.0
 
Date/Time
EDT
Temp
°C
App
Temp
°C
Dew
Point
°C
Rel
Hum
%
Delta-T
°C
Wind Press
QNH
hPa
Press
MSL
hPa
Rain since
9am
mm
Dir  Spd
km/h
Gust
km/h
Spd
kts
Gust
kts
17/11:30pm 16.0 12.8 1.0 36 7.0 NNW 7 9 4 5 1014.3 - 0.0
17/11:00pm 18.0 14.8 0.6 31 8.2 NNW 7 9 4 5 1014.8 - 0.0
17/10:30pm 18.3 15.6 2.6 35 7.7 NW 6 7 3 4 1015.1 - 0.0
17/10:00pm 14.9 12.3 4.0 48 5.4 NNW 7 9 4 5 1014.9 - 0.0
17/09:30pm 18.5 16.1 4.3 39 7.2 NNW 6 9 3 5 1014.9 - 0.0
17/09:00pm 20.0 17.4 4.1 35 8.2 WNW 7 9 4 5 1014.8 1010.8 0.0
17/08:30pm 18.3 16.4 6.8 47 6.1 W 6 9 3 5 1014.9 - 0.0
17/08:00pm 22.2 20.2 7.2 38 8.3 WNW 7 11 4 6 1014.9 - 0.0
17/07:30pm 25.2 23.3 6.9 31 10.2 WNW 6 9 3 5 1014.8 - 0.0
17/07:00pm 26.0 23.1 6.6 29 10.8 NW 11 17 6 9 1015.1 - 0.0
17/06:30pm 26.3 22.4 6.9 29 10.8 NW 17 30 9 16 1015.2 - 0.0
17/06:00pm 26.9 23.4 7.4 29 11.0 NW 15 26 8 14 1015.3 1011.3 0.0
17/05:30pm 26.7 22.2 6.2 27 11.3 WNW 19 28 10 15 1015.6 - 0.0
17/05:00pm 25.3 21.3 6.5 30 10.4 NW 17 30 9 16 1016.0 - 0.0
17/04:30pm 25.6 22.6 7.7 32 10.1 NW 13 22 7 12 1016.3 - 0.0
17/04:00pm 25.6 20.7 5.2 27 11.0 WNW 20 33 11 18 1016.7 - 0.0
17/03:30pm 26.4 19.4 4.2 24 11.9 WNW 30 43 16 23 1016.9 - 0.0
17/03:10pm 26.3 19.5 5.3 26 11.4 WNW 30 48 16 26 1016.9 - 0.0
17/03:05pm 25.9 16.9 2.6 22 12.1 WNW 39 50 21 27 1016.9 - 0.0
17/03:01pm 25.8 18.6 3.1 23 11.9 W 30 50 16 27 1017.0 - 0.0
17/03:00pm 25.8 18.8 4.3 25 11.5 W 30 50 16 27 1017.0 1013.0 0.0
17/02:58pm 25.8 18.6 3.1 23 11.9 W 30 50 16 27 1017.0 - 0.0
17/02:30pm 26.4 21.5 6.9 29 10.9 WNW 22 35 12 19 1017.0 - 0.0
17/02:00pm 26.0 19.9 5.0 26 11.3 WNW 26 41 14 22 1017.2 - 0.0
17/01:30pm 25.5 19.3 2.2 22 12.0 WNW 24 41 13 22 1017.4 - 0.0
17/01:00pm 25.1 19.2 3.7 25 11.2 NW 24 35 13 19 1017.6 - 0.0
17/12:30pm 22.9 18.0 3.9 29 9.9 NW 19 33 10 18 1017.8 - 0.0
17/12:00pm 23.1 17.7 4.6 30 9.8 NW 22 33 12 18 1018.0 1014.1 0.0
17/11:30am 24.2 18.9 2.9 25 11.0 NW 20 33 11 18 1018.5 - 0.0
17/11:00am 22.3 16.7 3.4 29 9.7 NW 22 30 12 16 1018.4 - 0.0
17/10:30am 21.4 15.1 3.6 31 9.1 NW 26 33 14 18 1018.6 - 0.0
17/10:00am 21.2 14.1 1.5 27 9.7 NW 28 39 15 21 1018.6 - 0.0
17/09:30am 20.8 13.4 1.6 28 9.4 NW 30 43 16 23 1018.4 - 0.0
17/09:00am 21.0 13.0 1.8 28 9.5 NW 33 46 18 25 1018.1 1014.2 0.0
17/08:51am 21.2 13.7 1.5 27 9.7 NW 30 52 16 28 1018.0 - 0.0
17/08:48am 21.2 13.7 1.5 27 9.7 NW 30 52 16 28 1018.0 - 0.0
17/08:30am 21.1 13.6 1.4 27 9.7 NW 30 41 16 22 1018.2 - 0.0
17/08:00am 20.3 14.4 1.7 29 9.1 NW 22 37 12 20 1018.0 - 0.0
17/07:30am 20.7 16.2 2.0 29 9.3 NNW 15 30 8 16 1017.9 - 0.0
17/07:00am 20.3 14.2 0.7 27 9.4 NW 22 37 12 20 1017.3 - 0.0
17/06:30am 19.5 12.9 -0.5 26 9.4 NW 24 37 13 20 1016.9 - 0.0
17/06:00am 19.5 12.9 -0.5 26 9.3 NNW 24 39 13 21 1016.5 1012.6 0.0
17/05:30am 19.2 13.4 -0.2 27 9.1 NNW 20 30 11 16 1016.7 - 0.0
17/05:00am 19.2 13.0 -0.2 27 9.1 NNW 22 33 12 18 1016.7 - 0.0
17/04:30am 19.6 13.8 -0.4 26 9.4 NNW 20 33 11 18 1016.8 - 0.0
17/04:00am 19.4 12.5 -0.1 27 9.2 NNW 26 37 14 20 1016.8 - 0.0
17/03:30am 19.6 13.1 0.1 27 9.2 NW 24 35 13 19 1017.0 - 0.0
17/03:00am 19.6 11.9 0.1 27 9.2 NW 30 43 16 23 1016.8 1012.8 0.0
17/02:37am 19.5 11.4 0.0 27 9.2 NW 32 50 17 27 1016.8 - 0.0
17/02:34am 19.5 11.4 0.0 27 9.2 NW 32 50 17 27 1016.8 - 0.0
17/02:30am 19.7 11.7 0.2 27 9.3 NW 32 46 17 25 1016.9 - 0.0
17/02:00am 19.5 11.5 0.5 28 9.1 NW 32 43 17 23 1017.1 - 0.0
17/01:30am 19.0 11.9 1.1 30 8.6 NW 28 39 15 21 1017.3 - 0.0
17/01:00am 19.2 11.3 1.2 30 8.7 NW 32 46 17 25 1017.8 - 0.0
17/12:30am 17.6 12.1 4.2 41 6.8 NW 22 33 12 18 1018.0 - 0.0
17/12:00am 14.6 12.4 6.4 58 4.2 NNE 7 11 4 6 1018.5 1014.5 0.0
 
Date/Time
EDT
Temp
°C
App
Temp
°C
Dew
Point
°C
Rel
Hum
%
Delta-T
°C
Wind Press
QNH
hPa
Press
MSL
hPa
Rain since
9am
mm
Dir  Spd
km/h
Gust
km/h
Spd
kts
Gust
kts
16/11:30pm 13.9 11.3 6.3 60 3.9 NNW 9 15 5 8 1018.8 - 0.0
16/11:00pm 13.0 11.6 7.2 68 3.0 WNW 4 6 2 3 1019.4 - 0.0
16/10:30pm 12.4 10.1 4.9 60 3.7 NNW 6 7 3 4 1019.5 - 0.0
16/10:00pm 14.5 11.9 6.3 58 4.2 WNW 9 13 5 7 1019.6 - 0.0
16/09:30pm 16.3 13.8 6.4 52 5.2 NNW 9 13 5 7 1019.5 - 0.0
16/09:00pm 16.7 15.4 5.9 49 5.6 N 2 7 1 4 1019.5 1015.6 0.0
16/08:30pm 16.4 14.3 6.0 50 5.4 WSW 6 7 3 4 1019.3 - 0.0
16/08:00pm 19.0 15.6 5.8 42 6.9 WNW 13 15 7 8 1019.1 - 0.0
16/07:30pm 21.0 17.1 5.4 36 8.2 NW 15 20 8 11 1019.1 - 0.0
16/07:00pm 22.0 17.6 5.0 33 9.0 NW 17 24 9 13 1019.0 - 0.0
16/06:30pm 23.1 19.8 6.4 34 9.1 WNW 13 22 7 12 1018.8 - 0.0
16/06:00pm 23.4 18.5 3.9 28 10.2 WNW 19 26 10 14 1018.7 1014.8 0.0
16/05:30pm 23.8 19.6 3.7 27 10.5 WNW 15 24 8 13 1018.8 - 0.0
16/05:00pm 23.6 19.1 2.4 25 10.8 WSW 15 26 8 14 1018.8 - 0.0
16/04:30pm 23.8 20.4 5.7 31 9.8 WSW 13 22 7 12 1018.8 - 0.0
16/04:00pm 23.9 19.2 3.2 26 10.7 W 17 33 9 18 1018.9 - 0.0
16/03:30pm 24.4 20.4 4.7 28 10.5 W 15 26 8 14 1019.0 - 0.0
16/03:00pm 24.1 19.2 1.7 23 11.3 W 17 28 9 15 1019.0 1015.1 0.0
16/02:30pm 24.0 20.4 4.9 29 10.2 WNW 13 24 7 13 1019.1 - 0.0
16/02:00pm 23.6 18.4 3.5 27 10.4 W 20 26 11 14 1019.4 - 0.0
16/01:30pm 23.7 18.8 5.1 30 9.9 NNW 20 28 11 15 1019.3 - 0.0
16/01:00pm 23.2 19.1 4.2 29 10.0 NNW 15 20 8 11 1019.4 - 0.0
16/12:30pm 23.3 20.0 4.8 30 9.8 N 11 19 6 10 1019.4 - 0.0
16/12:00pm 23.0 19.2 4.0 29 9.9 N 13 22 7 12 1019.5 1015.6 0.0
16/11:30am 22.4 18.4 3.0 28 9.9 N 13 22 7 12 1019.6 - 0.0
16/11:00am 21.4 17.0 2.6 29 9.5 NNW 15 22 8 12 1019.6 - 0.0
16/10:30am 20.6 16.1 2.0 29 9.2 NNW 15 20 8 11 1019.7 - 0.0
16/10:00am 20.0 15.8 1.4 29 9.1 NNW 13 24 7 13 1019.8 - 0.0
16/09:30am 19.7 15.4 0.7 28 9.1 NW 13 24 7 13 1019.8 - 0.0
16/09:00am 18.1 14.1 0.3 30 8.3 NNW 11 19 6 10 1019.8 1015.9 0.0
16/08:30am 17.0 13.6 1.8 36 7.3 NNW 9 15 5 8 1019.7 - 0.0
16/08:00am 15.7 12.0 2.5 41 6.4 NW 11 22 6 12 1019.4 - 0.0
16/07:30am 14.1 11.6 1.7 43 5.8 NW 4 11 2 6 1019.0 - 0.0
16/07:00am 10.4 7.7 0.4 50 4.4 WNW 4 6 2 3 1018.8 - 0.0
16/06:30am 11.4 7.4 -2.4 38 5.8 NW 9 15 5 8 1018.5 - 0.0
16/06:00am 9.9 6.0 1.3 55 3.9 NNW 11 13 6 7 1018.4 1014.4 0.0
16/05:30am 10.2 6.2 0.3 50 4.4 NW 11 13 6 7 1018.2 - 0.0
16/05:00am 9.9 6.3 2.7 61 3.3 NNW 11 13 6 7 1018.0 - 0.0
16/04:30am 10.1 7.6 3.6 64 3.1 NNW 6 7 3 4 1017.9 - 0.0
16/04:00am 7.7 5.8 4.8 82 1.4 NW 4 6 2 3 1017.8 - 0.0
16/03:30am 6.6 4.9 3.8 82 1.3 NW 2 4 1 2 1017.9 - 0.0
16/03:00am 7.5 5.4 6.0 90 0.7 NNW 6 7 3 4 1018.0 1014.1 0.0
16/02:30am 8.3 6.6 8.2 99 0.1 NW 7 9 4 5 1018.1 - 0.0
16/02:00am 8.1 6.3 8.0 99 0.1 NW 7 9 4 5 1018.5 - 0.0
16/01:30am 7.7 5.8 7.6 99 0.1 NW 7 7 4 4 1018.8 - 0.0
16/01:00am 7.2 5.4 7.1 99 0.1 NW 6 7 3 4 1019.0 - 0.0
16/12:30am 7.8 6.9 7.7 99 0.1 WNW 2 4 1 2 1019.1 - 0.0
16/12:19am 7.3 6.3 7.2 99 0.1 SW 2 4 1 2 1019.3 - 0.0
16/12:16am 7.3 6.3 7.2 99 0.1 SW 2 4 1 2 1019.3 - 0.0
16/12:00am 7.4 6.0 7.3 99 0.1 WNW 4 6 2 3 1019.1 1015.2 0.0
 
Date/Time
EDT
Temp
°C
App
Temp
°C
Dew
Point
°C
Rel
Hum
%
Delta-T
°C
Wind Press
QNH
hPa
Press
MSL
hPa
Rain since
9am
mm
Dir  Spd
km/h
Gust
km/h
Spd
kts
Gust
kts
15/11:57pm 6.7 5.1 6.4 98 0.1 NW 4 6 2 3 1019.1 - 0.0
15/11:54pm 6.7 5.1 6.4 98 0.1 NW 4 6 2 3 1019.1 - 0.0
15/11:30pm 7.9 6.6 7.8 99 0.1 WNW 4 4 2 2 1019.4 - 0.0
15/11:00pm 8.7 7.5 8.1 96 0.3 WNW 4 6 2 3 1019.5 - 0.0
15/10:30pm 10.0 9.6 8.3 89 0.9 CALM 0 4 0 2 1019.8 - 0.0
15/10:00pm 10.8 9.6 8.2 84 1.4 S 4 7 2 4 1020.1 - 0.0
15/09:30pm 11.6 11.2 8.1 79 1.8 CALM 0 4 0 2 1020.1 - 0.0
15/09:00pm 11.8 10.5 7.5 75 2.2 S 4 7 2 4 1019.8 1015.9 0.0
15/08:30pm 13.2 10.6 7.9 70 2.8 SSW 11 15 6 8 1019.8 - 0.0
15/08:00pm 15.9 14.0 8.9 63 3.8 S 9 13 5 7 1019.6 - 0.0
15/07:30pm 17.6 15.4 9.2 58 4.7 SE 11 15 6 8 1019.1 - 0.0
15/07:00pm 18.9 16.3 9.4 54 5.3 SE 13 17 7 9 1018.9 - 0.0
15/06:30pm 19.9 17.6 10.3 54 5.5 ESE 13 17 7 9 1018.8 - 0.0
15/06:00pm 20.2 16.9 9.5 50 6.1 ESE 17 22 9 12 1018.6 1014.7 0.0
15/05:30pm 21.2 19.7 9.1 46 6.8 ESE 7 15 4 8 1018.5 - 0.0
15/05:00pm 21.7 20.1 8.9 44 7.2 SE 7 13 4 7 1018.6 - 0.0
15/04:30pm 21.9 19.8 6.6 37 8.3 S 7 24 4 13 1018.7 - 0.0
15/04:00pm 21.1 19.7 9.7 48 6.5 SE 7 15 4 8 1018.9 - 0.0
15/03:30pm 21.5 20.1 9.7 47 6.8 ENE 7 17 4 9 1019.0 - 0.0
15/03:00pm 21.2 19.7 9.1 46 6.8 ENE 7 13 4 7 1019.0 1015.1 0.0
15/02:30pm 21.1 19.5 8.7 45 7.0 ENE 7 17 4 9 1019.1 - 0.0
15/02:00pm 20.4 18.3 9.6 50 6.1 E 11 20 6 11 1019.1 - 0.0
15/01:30pm 19.8 17.5 7.5 45 6.7 E 9 19 5 10 1019.3 - 0.0
15/01:00pm 19.5 17.1 8.8 50 6.0 SE 11 19 6 10 1019.3 - 0.0
15/12:30pm 19.2 16.6 7.6 47 6.3 ESE 11 19 6 10 1019.4 - 0.0
15/12:00pm 18.8 16.7 8.2 50 5.8 SE 9 15 5 8 1019.4 1015.5 0.0
15/11:30am 17.7 15.1 4.3 41 6.8 NNE 7 13 4 7 1019.4 - 0.0
15/11:00am 17.1 15.0 8.3 56 4.8 NE 9 15 5 8 1019.1 - 0.0

Other Formats:

Comma delimited format used in spreadsheet applications
http://www.bom.gov.au/fwo/IDV60801/IDV60801.94905.axf

JavaScript Object Notation format (JSON) in row-major order
http://www.bom.gov.au/fwo/IDV60801/IDV60801.94905.json